Peru, Indiana
Current Conditions -  °F | °C
As of 6:58 PM on Friday 24 Oct 2014 (Local Time) from KGUS Reporting Station
Scattered Clouds Scattered Clouds  
Wind Chill: 58°   Ceiling: Unl
Heat Index: 58°   Visibility: 10mi
Dew Point: 56°   Wind: 7mph
Humidity: 94%   Direction: 240°WSW
Pressure: 30"   Gusts: NA
Location:  40.75°N, 86.07°W
Report Text: KGUS 242258Z AUTO 24006KT 10SM SCT200 14/13 A3000 RMK AO2 SLP164 T01440134
Loading
Personal Weather Stations






























Interactive Weather Map
Tropical Storm Tracking
New forecast layout! Learn more

10-Day Weather Forecast

Advertisements
Track Severe Weather on mobile